createdAt,value
2018-06-05T00:00:54.900Z,14.10
2018-06-05T00:03:23.303Z,14.10
2018-06-05T00:05:51.827Z,14.10
2018-06-05T00:08:20.255Z,14.10
2018-06-05T00:10:48.658Z,14.10
2018-06-05T00:13:17.255Z,14.10
2018-06-05T00:15:45.806Z,14.20
2018-06-05T00:20:42.365Z,14.30
2018-06-05T00:23:10.806Z,14.30
2018-06-05T00:25:39.356Z,14.40
2018-06-05T00:28:07.915Z,14.40
2018-06-05T00:30:36.534Z,14.50
2018-06-05T00:33:04.965Z,14.50
2018-06-05T00:35:33.437Z,14.60
2018-06-05T00:38:01.899Z,14.60
2018-06-05T00:40:30.435Z,14.50
2018-06-05T00:42:58.990Z,14.50
2018-06-05T00:45:27.440Z,14.50
2018-06-05T00:47:55.875Z,14.40
2018-06-05T00:50:24.338Z,14.40
2018-06-05T00:52:52.945Z,14.30
2018-06-05T00:55:21.372Z,14.30
2018-06-05T00:57:49.861Z,14.20
2018-06-05T01:00:18.376Z,14.10
2018-06-05T01:02:46.862Z,14.10
2018-06-05T01:05:15.447Z,14.00
2018-06-05T01:07:43.969Z,13.90
2018-06-05T01:10:12.536Z,13.90
2018-06-05T01:12:40.958Z,13.90
2018-06-05T01:15:09.631Z,14.00
2018-06-05T01:17:38.354Z,14.10
2018-06-05T01:20:06.869Z,14.00
2018-06-05T01:22:35.554Z,14.00
2018-06-05T01:25:04.194Z,13.90
2018-06-05T01:27:32.728Z,13.80
2018-06-05T01:30:01.138Z,13.70
2018-06-05T01:32:29.725Z,13.70
2018-06-05T01:34:58.120Z,13.60
2018-06-05T01:37:26.554Z,13.50
2018-06-05T01:39:55.099Z,13.60
2018-06-05T01:42:23.589Z,13.60
2018-06-05T01:44:52.004Z,13.70
2018-06-05T01:47:21.051Z,13.60
2018-06-05T01:49:49.759Z,13.60
2018-06-05T01:52:18.310Z,13.50
2018-06-05T01:54:46.791Z,13.40
2018-06-05T01:57:16.107Z,13.40
2018-06-05T01:59:44.611Z,13.40
2018-06-05T02:04:41.650Z,13.30
2018-06-05T02:07:10.080Z,13.30
2018-06-05T02:09:38.545Z,13.20
2018-06-05T02:12:07.074Z,13.20
2018-06-05T02:14:35.590Z,13.20
2018-06-05T02:17:04.067Z,13.10
2018-06-05T02:19:32.488Z,13.00
2018-06-05T02:22:01.024Z,13.00
2018-06-05T02:24:29.463Z,12.90
2018-06-05T02:26:58.022Z,12.90
2018-06-05T02:29:26.477Z,12.90
2018-06-05T02:31:54.947Z,12.80
2018-06-05T02:34:23.367Z,12.80
2018-06-05T02:36:51.758Z,12.80
2018-06-05T02:39:20.223Z,12.70
2018-06-05T02:41:48.816Z,12.80
2018-06-05T02:44:17.304Z,12.70
2018-06-05T02:46:45.903Z,12.60
2018-06-05T02:49:14.439Z,12.70
2018-06-05T02:51:42.964Z,12.60
2018-06-05T02:54:12.011Z,12.50
2018-06-05T02:56:40.732Z,12.50
2018-06-05T02:59:09.409Z,12.50
2018-06-05T03:01:37.931Z,12.50
2018-06-05T03:04:06.643Z,12.40
2018-06-05T03:06:35.818Z,12.30
2018-06-05T03:09:05.600Z,12.30
2018-06-05T03:11:34.831Z,12.40
2018-06-05T03:14:03.416Z,12.30
2018-06-05T03:16:31.819Z,12.30
2018-06-05T03:19:00.264Z,12.40
2018-06-05T03:21:28.655Z,12.40
2018-06-05T03:23:57.144Z,12.30
2018-06-05T03:26:25.647Z,12.20
2018-06-05T03:28:54.105Z,12.20
2018-06-05T03:31:22.552Z,12.20
2018-06-05T03:33:51.153Z,12.10
2018-06-05T03:36:19.588Z,12.10
2018-06-05T03:38:48.026Z,12.00
2018-06-05T03:41:16.520Z,12.00
2018-06-05T03:43:45.186Z,12.00
2018-06-05T03:46:13.983Z,12.00
2018-06-05T03:48:42.383Z,12.10
2018-06-05T03:51:10.863Z,11.90
2018-06-05T03:53:39.738Z,12.00
2018-06-05T03:56:08.175Z,12.00
2018-06-05T03:58:36.608Z,12.00
2018-06-05T04:01:05.087Z,12.00
2018-06-05T04:03:33.503Z,11.90
2018-06-05T04:06:02.140Z,12.00
2018-06-05T04:08:30.566Z,12.00
2018-06-05T04:10:59.760Z,12.10
2018-06-05T04:13:28.411Z,12.10
2018-06-05T04:15:57.037Z,12.20
2018-06-05T04:18:25.677Z,12.20
2018-06-05T04:20:54.102Z,12.20
2018-06-05T04:23:22.817Z,12.30
2018-06-05T04:25:51.312Z,12.30
2018-06-05T04:28:19.768Z,12.30
2018-06-05T04:30:48.183Z,12.30
2018-06-05T04:33:16.608Z,12.40
2018-06-05T04:35:45.121Z,12.40
2018-06-05T04:38:13.654Z,12.40
2018-06-05T04:40:42.287Z,12.50
2018-06-05T04:43:10.851Z,12.60
2018-06-05T04:45:39.821Z,12.60
2018-06-05T04:48:08.649Z,12.60
2018-06-05T04:50:37.367Z,12.60
2018-06-05T04:53:06.320Z,12.70
2018-06-05T04:55:34.802Z,12.70
2018-06-05T04:58:03.338Z,12.80
2018-06-05T05:00:31.756Z,12.90
2018-06-05T05:03:00.275Z,13.00
2018-06-05T05:05:28.790Z,13.10
2018-06-05T05:07:57.243Z,13.20
2018-06-05T05:10:25.695Z,13.20
2018-06-05T05:12:54.158Z,13.30
2018-06-05T05:15:22.614Z,13.50
2018-06-05T05:17:51.103Z,13.60
2018-06-05T05:20:19.708Z,13.70
2018-06-05T05:22:48.331Z,13.80
2018-06-05T05:25:16.774Z,14.00
2018-06-05T05:27:45.322Z,14.20
2018-06-05T05:30:13.788Z,14.40
2018-06-05T05:32:42.289Z,14.60
2018-06-05T05:35:10.836Z,14.80
2018-06-05T05:37:39.280Z,15.00
2018-06-05T05:40:08.109Z,15.20
2018-06-05T05:45:05.321Z,15.40
2018-06-05T05:47:33.732Z,15.40
2018-06-05T05:50:02.211Z,15.60
2018-06-05T05:52:30.670Z,15.80
2018-06-05T05:54:59.118Z,15.90
2018-06-05T05:57:27.675Z,16.10
2018-06-05T05:59:56.113Z,16.40
2018-06-05T06:02:25.475Z,16.50
2018-06-05T06:04:54.039Z,16.70
2018-06-05T06:07:22.508Z,17.40
2018-06-05T06:09:51.543Z,17.70
2018-06-05T06:12:20.106Z,17.90
2018-06-05T06:14:48.547Z,18.10
2018-06-05T06:17:17.173Z,18.10
2018-06-05T06:19:45.883Z,18.10
2018-06-05T06:22:14.427Z,18.20
2018-06-05T06:24:42.890Z,18.20
2018-06-05T06:29:39.576Z,18.40
2018-06-05T06:32:08.191Z,18.40
2018-06-05T06:34:36.643Z,18.60
2018-06-05T06:37:05.104Z,18.60
2018-06-05T06:39:33.556Z,18.70
2018-06-05T06:42:02.094Z,18.80
2018-06-05T06:44:30.657Z,18.80
2018-06-05T06:46:59.110Z,18.90
2018-06-05T06:49:27.709Z,19.00
2018-06-05T06:51:56.157Z,19.10
2018-06-05T06:54:24.591Z,19.30
2018-06-05T06:56:53.193Z,19.40
2018-06-05T06:59:21.707Z,19.70
2018-06-05T07:01:50.151Z,19.70
2018-06-05T07:04:18.558Z,19.70
2018-06-05T07:06:46.984Z,19.60
2018-06-05T07:09:15.473Z,19.70
2018-06-05T07:11:44.045Z,19.70
2018-06-05T07:14:12.544Z,19.90
2018-06-05T07:16:41.082Z,20.10
2018-06-05T07:19:09.549Z,20.30
2018-06-05T07:24:06.183Z,20.40
2018-06-05T07:26:34.704Z,20.60
2018-06-05T07:29:03.248Z,20.80
2018-06-05T07:31:32.151Z,20.80
2018-06-05T07:34:00.664Z,21.00
2018-06-05T07:36:29.229Z,21.20
2018-06-05T07:38:57.749Z,21.30
2018-06-05T07:41:26.335Z,21.40
2018-06-05T07:43:54.773Z,21.60
2018-06-05T07:46:23.335Z,21.70
2018-06-05T07:48:51.871Z,21.80
2018-06-05T07:51:20.379Z,21.90
2018-06-05T07:53:48.776Z,22.10
2018-06-05T07:56:17.334Z,22.20
2018-06-05T07:58:45.839Z,22.40
2018-06-05T08:01:14.568Z,22.50
2018-06-05T08:03:43.063Z,22.50
2018-06-05T08:06:11.497Z,22.70
2018-06-05T08:08:40.021Z,22.60
2018-06-05T08:11:08.607Z,22.60
2018-06-05T08:13:37.207Z,22.70
2018-06-05T08:16:05.912Z,23.00
2018-06-05T08:18:34.335Z,23.10
2018-06-05T08:21:02.742Z,23.20
2018-06-05T08:23:31.191Z,23.40
2018-06-05T08:25:59.636Z,23.70
2018-06-05T08:28:28.123Z,23.80
2018-06-05T08:30:56.543Z,23.70
2018-06-05T08:33:25.040Z,23.70
2018-06-05T08:35:53.522Z,23.80
2018-06-05T08:38:22.036Z,24.00
2018-06-05T08:40:50.538Z,24.30
2018-06-05T08:43:18.983Z,24.50
2018-06-05T08:45:47.493Z,24.60
2018-06-05T08:48:15.914Z,24.70
2018-06-05T08:50:44.408Z,24.70
2018-06-05T08:53:12.829Z,25.00
2018-06-05T08:55:41.345Z,25.30
2018-06-05T08:58:09.900Z,25.30
2018-06-05T09:00:38.599Z,25.00
2018-06-05T09:03:07.068Z,24.70
2018-06-05T09:05:35.548Z,24.50
2018-06-05T09:08:03.995Z,24.40
2018-06-05T09:10:32.515Z,24.20
2018-06-05T09:13:01.027Z,24.20
2018-06-05T09:15:29.494Z,24.10
2018-06-05T09:17:57.953Z,24.30
2018-06-05T09:20:26.442Z,24.70
2018-06-05T09:22:54.877Z,25.10
2018-06-05T09:25:23.348Z,25.20
2018-06-05T09:27:52.303Z,25.40
2018-06-05T09:30:20.740Z,25.40
2018-06-05T09:32:49.178Z,25.50
2018-06-05T09:35:17.612Z,25.50
2018-06-05T09:37:46.227Z,25.50
2018-06-05T09:40:14.699Z,25.80
2018-06-05T09:42:43.087Z,25.80
2018-06-05T09:45:11.656Z,25.60
2018-06-05T09:47:40.085Z,25.50
2018-06-05T09:50:08.544Z,25.40
2018-06-05T09:52:37.069Z,25.50
2018-06-05T09:55:05.530Z,25.70
2018-06-05T09:57:33.977Z,25.90
2018-06-05T10:00:02.532Z,25.90
2018-06-05T10:02:30.984Z,26.10
2018-06-05T10:04:59.432Z,26.30
2018-06-05T10:07:27.891Z,26.30
2018-06-05T10:09:56.396Z,26.60
2018-06-05T10:12:24.866Z,26.70
2018-06-05T10:14:53.303Z,26.70
2018-06-05T10:17:21.794Z,26.50
2018-06-05T10:19:50.256Z,26.60
2018-06-05T10:22:18.914Z,26.60
2018-06-05T10:24:47.871Z,26.60
2018-06-05T10:27:16.438Z,26.70
2018-06-05T10:29:44.947Z,26.70
2018-06-05T10:32:13.535Z,26.70
2018-06-05T10:34:42.059Z,26.80
2018-06-05T10:37:10.452Z,26.90
2018-06-05T10:39:38.904Z,27.20
2018-06-05T10:42:07.350Z,27.30
2018-06-05T10:44:35.782Z,27.60
2018-06-05T10:47:04.304Z,27.40
2018-06-05T10:49:32.777Z,27.50
2018-06-05T10:52:01.253Z,27.70
2018-06-05T10:54:29.740Z,27.80
2018-06-05T10:56:58.168Z,28.00
2018-06-05T10:59:26.699Z,27.80
2018-06-05T11:01:55.197Z,27.80
2018-06-05T11:04:23.719Z,28.20
2018-06-05T11:06:52.178Z,28.40
2018-06-05T11:09:20.624Z,28.80
2018-06-05T11:11:49.151Z,29.30
2018-06-05T11:14:17.552Z,29.50
2018-06-05T11:16:46.009Z,29.70
2018-06-05T11:19:14.467Z,30.00
2018-06-05T11:21:42.978Z,30.20
2018-06-05T11:24:11.459Z,30.00
2018-06-05T11:26:39.922Z,30.20
2018-06-05T11:29:08.380Z,30.60
2018-06-05T11:31:36.840Z,30.60
2018-06-05T11:34:05.455Z,29.70
2018-06-05T11:36:33.950Z,29.90
2018-06-05T11:39:02.438Z,30.10
2018-06-05T11:41:30.857Z,30.30
2018-06-05T11:43:59.336Z,30.00
2018-06-05T11:46:27.811Z,30.20
2018-06-05T11:48:56.278Z,30.30
2018-06-05T11:51:24.771Z,30.20
2018-06-05T11:53:53.220Z,30.10
2018-06-05T11:56:21.682Z,30.10
2018-06-05T11:58:50.172Z,30.30
2018-06-05T12:01:18.690Z,30.70
2018-06-05T12:03:47.208Z,30.80
2018-06-05T12:06:15.691Z,30.10
2018-06-05T12:08:44.183Z,29.30
2018-06-05T12:11:12.591Z,29.10
2018-06-05T12:13:41.053Z,29.80
2018-06-05T12:16:09.503Z,30.50
2018-06-05T12:18:38.021Z,30.30
2018-06-05T12:21:06.512Z,30.60
2018-06-05T12:23:34.981Z,30.80
2018-06-05T12:26:03.451Z,30.90
2018-06-05T12:28:31.887Z,31.00
2018-06-05T12:31:00.373Z,31.20
2018-06-05T12:33:28.796Z,31.10
2018-06-05T12:35:57.291Z,31.00
2018-06-05T12:38:25.730Z,30.20
2018-06-05T12:40:54.208Z,30.40
2018-06-05T12:43:22.750Z,30.60
2018-06-05T12:45:51.261Z,30.60
2018-06-05T12:48:19.707Z,30.60
2018-06-05T12:50:48.156Z,30.70
2018-06-05T12:53:16.627Z,30.50
2018-06-05T12:55:45.076Z,30.60
2018-06-05T12:58:13.567Z,30.40
2018-06-05T13:00:42.029Z,30.30
2018-06-05T13:03:10.503Z,30.40
2018-06-05T13:05:38.922Z,30.50
2018-06-05T13:08:07.400Z,30.60
2018-06-05T13:10:35.915Z,30.90
2018-06-05T13:13:04.410Z,30.60
2018-06-05T13:15:32.818Z,30.30
2018-06-05T13:18:01.275Z,30.20
2018-06-05T13:20:29.679Z,30.00
2018-06-05T13:22:58.163Z,30.00
2018-06-05T13:25:26.575Z,30.40
2018-06-05T13:27:55.022Z,30.70
2018-06-05T13:30:23.512Z,30.70
2018-06-05T13:32:52.019Z,30.40
2018-06-05T13:35:20.649Z,30.00
2018-06-05T13:37:49.180Z,29.50
2018-06-05T13:40:17.704Z,29.30
2018-06-05T13:42:46.170Z,29.60
2018-06-05T13:45:14.704Z,29.70
2018-06-05T13:47:43.232Z,30.00
2018-06-05T13:50:11.757Z,30.00
2018-06-05T13:52:40.247Z,30.70
2018-06-05T13:55:08.748Z,31.20
2018-06-05T13:57:37.287Z,32.80
2018-06-05T14:00:06.099Z,32.70
2018-06-05T14:02:34.681Z,33.50
2018-06-05T14:05:03.286Z,34.50
2018-06-05T14:07:31.931Z,35.10
2018-06-05T14:10:00.386Z,33.80
2018-06-05T14:12:28.991Z,32.10
2018-06-05T14:14:57.424Z,31.10
2018-06-05T14:17:25.899Z,31.40
2018-06-05T14:19:54.475Z,33.30
2018-06-05T14:22:22.963Z,34.60
2018-06-05T14:24:51.460Z,35.60
2018-06-05T14:27:19.980Z,35.10
2018-06-05T14:29:48.516Z,35.70
2018-06-05T14:32:17.100Z,35.70
2018-06-05T14:34:45.679Z,35.90
2018-06-05T14:37:14.135Z,35.40
2018-06-05T14:39:42.777Z,34.60
2018-06-05T14:42:11.327Z,33.30
2018-06-05T14:44:39.811Z,32.90
2018-06-05T14:47:08.264Z,33.60
2018-06-05T14:49:36.829Z,34.60
2018-06-05T14:52:05.317Z,35.30
2018-06-05T14:54:33.898Z,35.70
2018-06-05T14:57:02.522Z,35.70
2018-06-05T14:59:31.086Z,36.00
2018-06-05T15:01:59.765Z,36.90
2018-06-05T15:04:28.298Z,36.70
2018-06-05T15:06:56.773Z,37.30
2018-06-05T15:09:25.357Z,37.80
2018-06-05T15:11:54.067Z,38.00
2018-06-05T15:14:22.659Z,37.20
2018-06-05T15:16:51.201Z,37.10
2018-06-05T15:19:19.664Z,36.80
2018-06-05T15:21:48.176Z,37.10
2018-06-05T15:24:16.639Z,36.00
2018-06-05T15:26:45.225Z,34.20
2018-06-05T15:29:13.718Z,32.40
2018-06-05T15:31:42.163Z,31.30
2018-06-05T15:34:10.635Z,30.30
2018-06-05T15:36:39.069Z,29.60
2018-06-05T15:39:08.418Z,29.20
2018-06-05T15:41:36.982Z,28.80
2018-06-05T15:44:05.485Z,28.80
2018-06-05T15:46:33.953Z,28.90
2018-06-05T15:49:02.439Z,28.70
2018-06-05T15:51:30.920Z,29.00
2018-06-05T15:53:59.405Z,29.30
2018-06-05T15:56:27.872Z,29.20
2018-06-05T15:58:56.440Z,29.10
2018-06-05T16:01:24.928Z,28.80
2018-06-05T16:03:53.375Z,28.70
2018-06-05T16:06:21.895Z,28.20
2018-06-05T16:08:50.464Z,27.80
2018-06-05T16:11:19.062Z,27.80
2018-06-05T16:13:47.556Z,27.70
2018-06-05T16:16:16.082Z,27.70
2018-06-05T16:18:44.663Z,27.90
2018-06-05T16:21:13.325Z,28.20
2018-06-05T16:23:41.794Z,28.10
2018-06-05T16:26:10.410Z,28.10
2018-06-05T16:28:38.924Z,28.00
2018-06-05T16:31:07.452Z,28.70
2018-06-05T16:33:35.944Z,30.30
2018-06-05T16:36:04.436Z,31.50
2018-06-05T16:38:32.944Z,32.30
2018-06-05T16:41:01.687Z,33.00
2018-06-05T16:43:30.291Z,33.70
2018-06-05T16:45:58.895Z,33.50
2018-06-05T16:48:27.403Z,33.80
2018-06-05T16:50:55.912Z,33.50
2018-06-05T16:53:24.469Z,32.80
2018-06-05T16:55:53.378Z,31.90
2018-06-05T16:58:21.825Z,31.30
2018-06-05T17:00:50.355Z,30.50
2018-06-05T17:03:19.160Z,30.20
2018-06-05T17:05:47.657Z,30.20
2018-06-05T17:08:16.186Z,30.50
2018-06-05T17:10:44.676Z,30.20
2018-06-05T17:15:41.384Z,30.10
2018-06-05T17:18:09.822Z,30.70
2018-06-05T17:20:38.379Z,30.70
2018-06-05T17:23:07.074Z,30.80
2018-06-05T17:25:35.512Z,30.70
2018-06-05T17:28:04.083Z,30.90
2018-06-05T17:30:32.694Z,31.40
2018-06-05T17:33:01.190Z,31.50
2018-06-05T17:35:29.845Z,31.60
2018-06-05T17:37:58.385Z,31.70
2018-06-05T17:40:26.909Z,31.90
2018-06-05T17:42:55.532Z,31.80
2018-06-05T17:45:24.175Z,31.90
2018-06-05T17:47:52.881Z,31.90
2018-06-05T17:50:21.859Z,31.40
2018-06-05T17:52:50.434Z,31.60
2018-06-05T17:55:18.972Z,31.30
2018-06-05T17:57:47.534Z,31.00
2018-06-05T18:00:16.072Z,30.90
2018-06-05T18:02:44.748Z,30.20
2018-06-05T18:05:13.296Z,29.70
2018-06-05T18:07:41.815Z,29.20
2018-06-05T18:10:10.291Z,28.70
2018-06-05T18:12:38.993Z,28.30
2018-06-05T18:15:07.698Z,27.80
2018-06-05T18:17:36.335Z,27.50
2018-06-05T18:20:04.915Z,27.20
2018-06-05T18:22:33.385Z,27.00
2018-06-05T18:25:02.089Z,26.80
2018-06-05T18:27:30.570Z,26.70
2018-06-05T18:29:59.105Z,26.50
2018-06-05T18:34:56.025Z,25.90
2018-06-05T18:37:24.726Z,25.80
2018-06-05T18:39:53.418Z,25.60
2018-06-05T18:42:21.886Z,25.40
2018-06-05T18:44:50.465Z,25.00
2018-06-05T18:47:19.186Z,24.70
2018-06-05T18:49:47.764Z,24.40
2018-06-05T18:52:16.273Z,24.00
2018-06-05T18:54:45.261Z,23.70
2018-06-05T18:57:13.766Z,23.40
2018-06-05T18:59:42.305Z,23.20
2018-06-05T19:02:10.939Z,23.00
2018-06-05T19:04:40.271Z,22.90
2018-06-05T19:07:08.928Z,22.70
2018-06-05T19:09:37.488Z,22.40
2018-06-05T19:12:06.308Z,22.20
2018-06-05T19:14:34.823Z,22.10
2018-06-05T19:17:03.289Z,21.80
2018-06-05T19:19:31.893Z,21.70
2018-06-05T19:22:00.561Z,21.50
2018-06-05T19:24:29.207Z,21.30
2018-06-05T19:26:57.752Z,21.10
2018-06-05T19:29:26.492Z,21.10
2018-06-05T19:31:54.882Z,21.00
2018-06-05T19:34:23.468Z,20.90
2018-06-05T19:36:52.177Z,20.70
2018-06-05T19:39:20.728Z,20.50
2018-06-05T19:41:49.279Z,20.50
2018-06-05T19:44:17.768Z,20.30
2018-06-05T19:46:47.170Z,20.20
2018-06-05T19:49:18.629Z,20.20
2018-06-05T19:51:47.230Z,20.20
2018-06-05T19:54:15.881Z,20.30
2018-06-05T19:56:44.468Z,20.20
2018-06-05T19:59:13.069Z,20.10
2018-06-05T20:01:41.509Z,20.00
2018-06-05T20:04:10.097Z,19.90
2018-06-05T20:06:38.788Z,19.90
2018-06-05T20:09:08.182Z,19.80
2018-06-05T20:11:36.782Z,19.70
2018-06-05T20:14:05.317Z,19.70
2018-06-05T20:16:33.924Z,19.60
2018-06-05T20:19:02.487Z,19.50
2018-06-05T20:21:30.992Z,19.40
2018-06-05T20:23:59.555Z,19.40
2018-06-05T20:26:28.274Z,19.40
2018-06-05T20:28:56.859Z,19.40
2018-06-05T20:31:25.368Z,19.40
2018-06-05T20:33:53.816Z,19.30
2018-06-05T20:36:22.901Z,19.30
2018-06-05T20:38:51.415Z,19.30
2018-06-05T20:41:19.922Z,19.20
2018-06-05T20:43:48.511Z,19.10
2018-06-05T20:46:17.041Z,19.10
2018-06-05T20:48:45.594Z,18.90
2018-06-05T20:51:14.288Z,18.80
2018-06-05T20:53:43.014Z,18.70
2018-06-05T20:56:11.548Z,18.60
2018-06-05T20:58:40.323Z,18.50
2018-06-05T21:01:08.982Z,18.40
2018-06-05T21:03:37.447Z,18.30
2018-06-05T21:06:06.123Z,18.30
2018-06-05T21:08:34.618Z,18.10
2018-06-05T21:11:03.099Z,18.10
2018-06-05T21:13:31.567Z,18.00
2018-06-05T21:16:00.027Z,18.00
2018-06-05T21:18:28.511Z,17.80
2018-06-05T21:20:57.028Z,17.80
2018-06-05T21:23:25.699Z,17.80
2018-06-05T21:25:54.567Z,17.70
2018-06-05T21:28:23.322Z,17.70
2018-06-05T21:30:51.799Z,17.50
2018-06-05T21:33:20.397Z,17.50
2018-06-05T21:35:49.047Z,17.40
2018-06-05T21:38:17.727Z,17.30
2018-06-05T21:40:46.194Z,17.20
2018-06-05T21:43:14.731Z,17.10
2018-06-05T21:45:43.333Z,17.10
2018-06-05T21:48:11.884Z,17.00
2018-06-05T21:50:41.197Z,17.00
2018-06-05T21:53:09.755Z,17.00
2018-06-05T21:55:38.378Z,16.90
2018-06-05T22:00:35.203Z,16.80
2018-06-05T22:03:03.877Z,16.80
2018-06-05T22:05:32.478Z,16.70
2018-06-05T22:08:01.144Z,16.60
2018-06-05T22:10:29.617Z,16.60
2018-06-05T22:12:58.198Z,16.50
2018-06-05T22:15:26.804Z,16.40
2018-06-05T22:17:55.284Z,16.40
2018-06-05T22:20:23.735Z,16.40
2018-06-05T22:22:52.175Z,16.40
2018-06-05T22:25:20.795Z,16.30
2018-06-05T22:27:49.552Z,16.30
2018-06-05T22:30:18.054Z,16.20
2018-06-05T22:32:46.464Z,16.10
2018-06-05T22:35:14.926Z,16.10
2018-06-05T22:37:43.517Z,16.10
2018-06-05T22:40:12.064Z,16.00
2018-06-05T22:42:41.220Z,16.00
2018-06-05T22:45:09.759Z,16.00
2018-06-05T22:47:38.280Z,16.00
2018-06-05T22:50:06.830Z,15.90
2018-06-05T22:52:35.267Z,15.90
2018-06-05T22:55:03.783Z,15.80
2018-06-05T22:57:32.207Z,15.80
2018-06-05T23:00:00.668Z,15.80
2018-06-05T23:02:29.050Z,15.80
2018-06-05T23:04:57.533Z,15.70
2018-06-05T23:07:26.076Z,15.60
2018-06-05T23:09:54.537Z,15.50
2018-06-05T23:12:23.027Z,15.50
2018-06-05T23:14:51.442Z,15.50
2018-06-05T23:17:19.867Z,15.50
2018-06-05T23:19:48.367Z,15.50
2018-06-05T23:22:16.800Z,15.50
2018-06-05T23:24:45.228Z,15.40
2018-06-05T23:27:13.735Z,15.40
2018-06-05T23:29:42.280Z,15.40
2018-06-05T23:32:10.715Z,15.30
2018-06-05T23:34:39.125Z,15.20
2018-06-05T23:37:07.599Z,15.20
2018-06-05T23:39:36.092Z,15.20
2018-06-05T23:42:04.596Z,15.20
2018-06-05T23:44:33.119Z,15.10
2018-06-05T23:47:01.556Z,15.10
2018-06-05T23:49:30.056Z,15.10
2018-06-05T23:51:58.687Z,15.00
2018-06-05T23:54:27.466Z,15.00
2018-06-05T23:56:56.007Z,15.00
2018-06-05T23:59:24.476Z,15.00
